createdAt,value
2019-04-30T00:00:39.994Z,1019.9
2019-04-30T00:01:40.003Z,1019.9
2019-04-30T00:02:40.166Z,1020
2019-04-30T00:03:40.063Z,1020
2019-04-30T00:04:40.450Z,1020
2019-04-30T00:05:40.077Z,1020.1
2019-04-30T00:06:40.129Z,1020.1
2019-04-30T00:07:40.146Z,1020.1
2019-04-30T00:08:40.173Z,1020.1
2019-04-30T00:09:40.159Z,1020.1
2019-04-30T00:10:41.437Z,1020.1
2019-04-30T00:11:40.218Z,1020
2019-04-30T00:12:40.245Z,1020.1
2019-04-30T00:13:40.241Z,1020
2019-04-30T00:14:41.289Z,1020.1
2019-04-30T00:15:40.307Z,1020.1
2019-04-30T00:16:40.308Z,1020.1
2019-04-30T00:17:40.327Z,1020.2
2019-04-30T00:18:53.223Z,1020.1
2019-04-30T00:19:40.376Z,1020.1
2019-04-30T00:20:40.538Z,1020.1
2019-04-30T00:21:40.385Z,1020.2
2019-04-30T00:22:46.949Z,1020.2
2019-04-30T00:23:40.405Z,1020.1
2019-04-30T00:24:44.729Z,1020.1
2019-04-30T00:25:40.405Z,1020.1
2019-04-30T00:26:44.914Z,1020.2
2019-04-30T00:27:40.446Z,1020.2
2019-04-30T00:28:44.285Z,1020.1
2019-04-30T00:29:40.453Z,1020
2019-04-30T00:30:43.863Z,1020.1
2019-04-30T00:31:40.448Z,1020.1
2019-04-30T00:32:43.541Z,1020.2
2019-04-30T00:33:40.474Z,1020.2
2019-04-30T00:34:40.493Z,1020.2
2019-04-30T00:35:40.471Z,1020.1
2019-04-30T00:36:40.488Z,1020.2
2019-04-30T00:37:40.498Z,1020.2
2019-04-30T00:38:40.493Z,1020.2
2019-04-30T00:39:44.068Z,1020.2
2019-04-30T00:40:40.479Z,1020.2
2019-04-30T00:41:43.974Z,1020.1
2019-04-30T00:43:00.088Z,1020.1
2019-04-30T00:43:46.327Z,1020.2
2019-04-30T00:44:40.718Z,1020.1
2019-04-30T00:45:44.639Z,1020.1
2019-04-30T00:46:40.835Z,1020.2
2019-04-30T00:47:44.363Z,1020.1
2019-04-30T00:48:40.946Z,1020.2
2019-04-30T00:49:40.991Z,1020.1
2019-04-30T00:50:41.069Z,1020.1
2019-04-30T00:51:41.123Z,1020.2
2019-04-30T00:52:41.184Z,1020.1
2019-04-30T00:53:43.761Z,1020.2
2019-04-30T00:54:41.333Z,1020.1
2019-04-30T00:55:44.831Z,1020.1
2019-04-30T00:56:41.395Z,1020.1
2019-04-30T00:57:47.366Z,1020.2
2019-04-30T00:58:41.508Z,1020.1
2019-04-30T00:59:44.504Z,1020.2
2019-04-30T01:00:41.534Z,1020.2
2019-04-30T01:01:43.467Z,1020.2
2019-04-30T01:02:41.565Z,1020.2
2019-04-30T01:03:44.290Z,1020.1
2019-04-30T01:04:41.628Z,1020.3
2019-04-30T01:05:44.403Z,1020.2
2019-04-30T01:06:41.659Z,1020.2
2019-04-30T01:07:48.495Z,1020.3
2019-04-30T01:08:41.751Z,1020.2
2019-04-30T01:09:44.450Z,1020.3
2019-04-30T01:10:41.838Z,1020.2
2019-04-30T01:11:44.671Z,1020.2
2019-04-30T01:12:47.004Z,1020.2
2019-04-30T01:13:49.866Z,1020.2
2019-04-30T01:14:41.972Z,1020.3
2019-04-30T01:15:43.859Z,1020.2
2019-04-30T01:16:42.024Z,1020.2
2019-04-30T01:17:45.269Z,1020.2
2019-04-30T01:18:42.064Z,1020.2
2019-04-30T01:19:45.861Z,1020.2
2019-04-30T01:20:42.167Z,1020.2
2019-04-30T01:21:46.902Z,1020.2
2019-04-30T01:22:42.186Z,1020.2
2019-04-30T01:23:48.908Z,1020.2
2019-04-30T01:24:42.238Z,1020.2
2019-04-30T01:25:43.083Z,1020.3
2019-04-30T01:26:42.361Z,1020.3
2019-04-30T01:27:45.524Z,1020.3
2019-04-30T01:28:42.403Z,1020.3
2019-04-30T01:29:44.327Z,1020.4
2019-04-30T01:30:42.442Z,1020.2
2019-04-30T01:31:42.464Z,1020.2
2019-04-30T01:32:42.501Z,1020.2
2019-04-30T01:33:42.517Z,1020.2
2019-04-30T01:34:44.115Z,1020.2
2019-04-30T01:35:42.558Z,1020.2
2019-04-30T01:36:43.399Z,1020.2
2019-04-30T01:37:42.671Z,1020.2
2019-04-30T01:38:44.733Z,1020.2
2019-04-30T01:39:42.663Z,1020.2
2019-04-30T01:40:46.958Z,1020.2
2019-04-30T01:41:42.705Z,1020.2
2019-04-30T01:42:47.861Z,1020.3
2019-04-30T01:43:42.754Z,1020.2
2019-04-30T01:44:43.386Z,1020.3
2019-04-30T01:45:42.795Z,1020.4
2019-04-30T01:46:43.168Z,1020.3
2019-04-30T01:47:42.897Z,1020.3
2019-04-30T01:48:43.521Z,1020.3
2019-04-30T01:49:44.806Z,1020.3
2019-04-30T01:50:42.975Z,1020.3
2019-04-30T01:51:42.991Z,1020.4
2019-04-30T01:52:43.100Z,1020.3
2019-04-30T01:53:45.256Z,1020.3
2019-04-30T01:54:43.014Z,1020.2
2019-04-30T01:55:43.043Z,1020.3
2019-04-30T01:56:43.035Z,1020.4
2019-04-30T01:57:43.051Z,1020.3
2019-04-30T01:58:43.086Z,1020.3
2019-04-30T01:59:43.107Z,1020.2
2019-04-30T02:00:43.117Z,1020.3
2019-04-30T02:01:43.147Z,1020.4
2019-04-30T02:02:43.158Z,1020.3
2019-04-30T02:03:43.213Z,1020.3
2019-04-30T02:04:43.196Z,1020.3
2019-04-30T02:05:43.242Z,1020.4
2019-04-30T02:06:43.356Z,1020.3
2019-04-30T02:07:45.857Z,1020.4
2019-04-30T02:08:43.280Z,1020.3
2019-04-30T02:09:43.342Z,1020.3
2019-04-30T02:10:43.416Z,1020.4
2019-04-30T02:11:43.364Z,1020.3
2019-04-30T02:12:43.413Z,1020.3
2019-04-30T02:13:43.396Z,1020.3
2019-04-30T02:14:43.408Z,1020.4
2019-04-30T02:15:43.419Z,1020.4
2019-04-30T02:16:43.443Z,1020.4
2019-04-30T02:17:43.457Z,1020.4
2019-04-30T02:18:43.561Z,1020.4
2019-04-30T02:19:54.043Z,1020.4
2019-04-30T02:20:43.476Z,1020.4
2019-04-30T02:21:43.582Z,1020.4
2019-04-30T02:22:43.517Z,1020.5
2019-04-30T02:23:43.523Z,1020.5
2019-04-30T02:24:43.522Z,1020.5
2019-04-30T02:25:46.037Z,1020.4
2019-04-30T02:26:43.536Z,1020.6
2019-04-30T02:27:43.536Z,1020.4
2019-04-30T02:28:43.524Z,1020.5
2019-04-30T02:29:43.803Z,1020.5
2019-04-30T02:30:43.565Z,1020.4
2019-04-30T02:31:43.608Z,1020.4
2019-04-30T02:32:43.711Z,1020.6
2019-04-30T02:33:43.771Z,1020.5
2019-04-30T02:34:44.291Z,1020.5
2019-04-30T02:35:43.838Z,1020.4
2019-04-30T02:36:43.898Z,1020.5
2019-04-30T02:37:43.957Z,1020.5
2019-04-30T02:38:44.024Z,1020.5
2019-04-30T02:39:44.101Z,1020.5
2019-04-30T02:40:44.093Z,1020.5
2019-04-30T02:41:44.181Z,1020.5
2019-04-30T02:42:44.243Z,1020.5
2019-04-30T02:43:44.290Z,1020.6
2019-04-30T02:44:44.371Z,1020.6
2019-04-30T02:45:44.408Z,1020.5
2019-04-30T02:46:44.460Z,1020.5
2019-04-30T02:47:44.519Z,1020.5
2019-04-30T02:48:44.514Z,1020.5
2019-04-30T02:49:44.596Z,1020.6
2019-04-30T02:50:44.841Z,1020.6
2019-04-30T02:51:44.656Z,1020.5
2019-04-30T02:52:44.682Z,1020.6
2019-04-30T02:53:44.688Z,1020.6
2019-04-30T02:54:44.675Z,1020.6
2019-04-30T02:55:44.776Z,1020.6
2019-04-30T02:56:44.827Z,1020.8
2019-04-30T02:57:44.865Z,1020.7
2019-04-30T02:58:44.944Z,1020.7
2019-04-30T02:59:45.002Z,1020.8
2019-04-30T03:00:44.987Z,1020.8
2019-04-30T03:01:45.036Z,1020.8
2019-04-30T03:02:45.068Z,1020.7
2019-04-30T03:03:45.403Z,1020.8
2019-04-30T03:04:45.173Z,1020.8
2019-04-30T03:05:45.307Z,1020.8
2019-04-30T03:06:45.278Z,1020.9
2019-04-30T03:07:45.335Z,1020.9
2019-04-30T03:08:45.365Z,1020.9
2019-04-30T03:09:45.423Z,1020.9
2019-04-30T03:10:45.459Z,1021
2019-04-30T03:11:45.528Z,1020.9
2019-04-30T03:12:45.535Z,1020.9
2019-04-30T03:13:45.587Z,1020.9
2019-04-30T03:14:45.648Z,1020.9
2019-04-30T03:15:45.684Z,1020.9
2019-04-30T03:16:45.696Z,1020.9
2019-04-30T03:17:45.761Z,1020.9
2019-04-30T03:18:45.795Z,1020.9
2019-04-30T03:19:45.822Z,1020.8
2019-04-30T03:20:45.860Z,1020.8
2019-04-30T03:21:45.913Z,1020.8
2019-04-30T03:22:46.032Z,1020.8
2019-04-30T03:23:45.968Z,1020.9
2019-04-30T03:24:46.023Z,1020.8
2019-04-30T03:25:46.028Z,1020.8
2019-04-30T03:26:46.076Z,1020.8
2019-04-30T03:27:46.141Z,1020.8
2019-04-30T03:28:46.139Z,1020.8
2019-04-30T03:29:50.206Z,1021
2019-04-30T03:30:46.190Z,1020.9
2019-04-30T03:31:46.223Z,1020.9
2019-04-30T03:32:52.037Z,1020.9
2019-04-30T03:33:46.229Z,1020.9
2019-04-30T03:34:46.350Z,1020.9
2019-04-30T03:35:47.548Z,1020.9
2019-04-30T03:36:46.311Z,1020.8
2019-04-30T03:37:46.426Z,1020.9
2019-04-30T03:38:46.374Z,1020.9
2019-04-30T03:39:46.382Z,1020.8
2019-04-30T03:40:46.423Z,1020.8
2019-04-30T03:41:46.441Z,1020.9
2019-04-30T03:42:49.276Z,1020.7
2019-04-30T03:43:46.461Z,1020.8
2019-04-30T03:44:49.347Z,1020.8
2019-04-30T03:45:46.518Z,1020.8
2019-04-30T03:46:49.588Z,1020.9
2019-04-30T03:47:46.569Z,1020.8
2019-04-30T03:48:46.619Z,1020.8
2019-04-30T03:49:46.605Z,1020.8
2019-04-30T03:50:53.104Z,1020.8
2019-04-30T03:51:46.616Z,1020.9
2019-04-30T03:52:46.634Z,1020.8
2019-04-30T03:53:49.566Z,1020.8
2019-04-30T03:54:49.272Z,1020.8
2019-04-30T03:55:46.657Z,1020.9
2019-04-30T03:56:49.794Z,1020.9
2019-04-30T03:57:49.335Z,1020.9
2019-04-30T03:58:46.709Z,1020.8
2019-04-30T03:59:49.762Z,1020.9
2019-04-30T04:00:46.819Z,1020.9
2019-04-30T04:01:49.609Z,1020.8
2019-04-30T04:02:46.794Z,1020.9
2019-04-30T04:03:46.763Z,1020.8
2019-04-30T04:04:49.412Z,1020.8
2019-04-30T04:05:46.791Z,1020.8
2019-04-30T04:06:49.008Z,1020.8
2019-04-30T04:07:49.829Z,1020.9
2019-04-30T04:08:49.004Z,1020.9
2019-04-30T04:09:49.316Z,1020.9
2019-04-30T04:10:46.815Z,1020.9
2019-04-30T04:11:46.785Z,1020.9
2019-04-30T04:12:49.592Z,1020.9
2019-04-30T04:13:49.406Z,1020.8
2019-04-30T04:14:46.914Z,1020.9
2019-04-30T04:15:49.717Z,1020.9
2019-04-30T04:16:47.063Z,1020.8
2019-04-30T04:17:47.077Z,1020.9
2019-04-30T04:18:49.784Z,1020.9
2019-04-30T04:19:49.415Z,1020.9
2019-04-30T04:20:50.158Z,1020.9
2019-04-30T04:21:47.306Z,1020.9
2019-04-30T04:22:49.441Z,1021
2019-04-30T04:23:49.263Z,1020.8
2019-04-30T04:24:50.046Z,1021
2019-04-30T04:25:49.785Z,1020.9
2019-04-30T04:26:50.130Z,1020.9
2019-04-30T04:27:47.561Z,1021
2019-04-30T04:28:49.577Z,1020.8
2019-04-30T04:29:50.543Z,1021
2019-04-30T04:30:50.450Z,1020.9
2019-04-30T04:31:50.023Z,1021
2019-04-30T04:32:50.009Z,1020.9
2019-04-30T04:33:49.523Z,1020.8
2019-04-30T04:34:50.030Z,1020.9
2019-04-30T04:35:49.750Z,1021
2019-04-30T04:36:50.434Z,1020.9
2019-04-30T04:37:49.364Z,1021
2019-04-30T04:38:50.529Z,1020.9
2019-04-30T04:39:49.988Z,1021
2019-04-30T04:40:50.149Z,1021
2019-04-30T04:41:50.205Z,1021
2019-04-30T04:42:49.213Z,1021
2019-04-30T04:43:50.285Z,1021
2019-04-30T04:44:50.073Z,1021.1
2019-04-30T04:45:49.713Z,1021.1
2019-04-30T04:46:50.266Z,1021.1
2019-04-30T04:47:50.310Z,1021.1
2019-04-30T04:48:49.312Z,1021
2019-04-30T04:49:50.666Z,1021
2019-04-30T04:50:50.029Z,1021.1
2019-04-30T04:51:50.760Z,1021
2019-04-30T04:52:49.520Z,1021.1
2019-04-30T04:53:49.983Z,1021
2019-04-30T04:54:50.532Z,1021
2019-04-30T04:55:49.849Z,1021
2019-04-30T04:56:50.374Z,1021
2019-04-30T04:57:50.001Z,1021
2019-04-30T04:58:50.136Z,1020.9
2019-04-30T04:59:49.834Z,1020.9
2019-04-30T05:00:49.426Z,1020.9
2019-04-30T05:01:48.995Z,1021
2019-04-30T05:02:49.729Z,1020.9
2019-04-30T05:03:49.057Z,1021
2019-04-30T05:04:49.210Z,1021
2019-04-30T05:05:49.890Z,1021
2019-04-30T05:06:49.752Z,1021.1
2019-04-30T05:07:48.927Z,1021
2019-04-30T05:08:49.295Z,1021.1
2019-04-30T05:09:49.046Z,1021
2019-04-30T05:10:49.463Z,1021
2019-04-30T05:11:49.094Z,1021.1
2019-04-30T05:12:50.916Z,1021.1
2019-04-30T05:13:49.209Z,1021.1
2019-04-30T05:14:49.236Z,1021.1
2019-04-30T05:15:51.502Z,1021.1
2019-04-30T05:16:49.320Z,1021.1
2019-04-30T05:17:49.563Z,1021.1
2019-04-30T05:18:49.425Z,1021.1
2019-04-30T05:19:49.406Z,1021.2
2019-04-30T05:20:49.418Z,1021.2
2019-04-30T05:21:51.660Z,1021.2
2019-04-30T05:22:49.454Z,1021.2
2019-04-30T05:23:49.439Z,1021.2
2019-04-30T05:24:49.474Z,1021.2
2019-04-30T05:25:49.522Z,1021.1
2019-04-30T05:26:49.529Z,1021.2
2019-04-30T05:27:49.562Z,1021.2
2019-04-30T05:28:52.741Z,1021.2
2019-04-30T05:29:49.929Z,1021.2
2019-04-30T05:30:49.622Z,1021.2
2019-04-30T05:31:49.667Z,1021.2
2019-04-30T05:32:50.821Z,1021.3
2019-04-30T05:33:49.690Z,1021.3
2019-04-30T05:34:49.805Z,1021.3
2019-04-30T05:35:49.743Z,1021.2
2019-04-30T05:36:49.756Z,1021.2
2019-04-30T05:37:49.786Z,1021.2
2019-04-30T05:38:49.794Z,1021.2
2019-04-30T05:39:49.821Z,1021.2
2019-04-30T05:40:49.846Z,1021.1
2019-04-30T05:41:49.854Z,1021.1
2019-04-30T05:42:49.892Z,1021.2
2019-04-30T05:43:49.906Z,1021.1
2019-04-30T05:44:49.952Z,1021.2
2019-04-30T05:45:49.953Z,1021.2
2019-04-30T05:46:50.018Z,1021.2
2019-04-30T05:47:50.514Z,1021.1
2019-04-30T05:48:50.000Z,1021.2
2019-04-30T05:49:50.008Z,1021.3
2019-04-30T05:50:51.707Z,1021.2
2019-04-30T05:51:54.982Z,1021.3
2019-04-30T05:52:50.045Z,1021.2
2019-04-30T05:53:50.081Z,1021.2
2019-04-30T05:54:50.079Z,1021.2
2019-04-30T05:55:50.082Z,1021.3
2019-04-30T05:56:50.144Z,1021.2
2019-04-30T05:57:55.735Z,1021.2
2019-04-30T05:58:50.121Z,1021.2
2019-04-30T05:59:50.164Z,1021.3
2019-04-30T06:00:50.179Z,1021.2
2019-04-30T06:01:50.733Z,1021.2
2019-04-30T06:03:05.670Z,1021.2
2019-04-30T06:03:50.176Z,1021.3
2019-04-30T06:04:50.175Z,1021.2
2019-04-30T06:05:50.184Z,1021.2
2019-04-30T06:06:50.270Z,1021.2
2019-04-30T06:07:51.927Z,1021.2
2019-04-30T06:08:50.193Z,1021.1
2019-04-30T06:09:50.219Z,1021.1
2019-04-30T06:10:51.746Z,1021.1
2019-04-30T06:11:50.220Z,1021.1
2019-04-30T06:12:50.196Z,1021.1
2019-04-30T06:13:50.275Z,1021.1
2019-04-30T06:14:51.812Z,1021.1
2019-04-30T06:15:50.368Z,1021.1
2019-04-30T06:16:51.714Z,1021.1
2019-04-30T06:17:59.512Z,1021.1
2019-04-30T06:18:50.541Z,1021.1
2019-04-30T06:19:51.396Z,1021.1
2019-04-30T06:20:50.657Z,1021.1
2019-04-30T06:21:50.706Z,1021.1
2019-04-30T06:22:52.146Z,1021.1
2019-04-30T06:23:50.860Z,1021.1
2019-04-30T06:24:50.831Z,1021.1
2019-04-30T06:25:56.978Z,1021.2
2019-04-30T06:26:53.222Z,1021.2
2019-04-30T06:27:50.928Z,1021.1
2019-04-30T06:28:50.975Z,1021.1
2019-04-30T06:29:52.128Z,1021.1
2019-04-30T06:30:51.113Z,1021.1
2019-04-30T06:31:51.172Z,1021.2
2019-04-30T06:32:51.217Z,1021.1
2019-04-30T06:33:51.291Z,1021.1
2019-04-30T06:34:51.273Z,1021
2019-04-30T06:35:51.322Z,1021
2019-04-30T06:36:53.832Z,1021.1
2019-04-30T06:37:51.441Z,1021
2019-04-30T06:38:51.425Z,1021
2019-04-30T06:39:51.447Z,1021.1
2019-04-30T06:40:51.521Z,1021.1
2019-04-30T06:41:51.589Z,1021.1
2019-04-30T06:42:51.602Z,1021.1
2019-04-30T06:43:51.660Z,1021.1
2019-04-30T06:44:51.725Z,1021.1
2019-04-30T06:45:51.696Z,1020.9
2019-04-30T06:46:51.703Z,1021
2019-04-30T06:47:51.735Z,1021
2019-04-30T06:48:51.788Z,1021
2019-04-30T06:49:51.835Z,1020.9
2019-04-30T06:50:51.863Z,1020.9
2019-04-30T06:51:51.911Z,1020.9
2019-04-30T06:52:56.720Z,1020.9
2019-04-30T06:53:51.989Z,1020.9
2019-04-30T06:54:52.043Z,1020.9
2019-04-30T06:55:52.102Z,1020.8
2019-04-30T06:56:52.142Z,1020.8
2019-04-30T06:57:52.138Z,1020.8
2019-04-30T06:58:52.625Z,1020.8
2019-04-30T06:59:52.132Z,1020.9
2019-04-30T07:00:52.208Z,1020.8
2019-04-30T07:01:52.242Z,1020.8
2019-04-30T07:02:52.241Z,1020.7
2019-04-30T07:03:52.279Z,1020.8
2019-04-30T07:04:52.276Z,1020.8
2019-04-30T07:05:52.285Z,1020.7
2019-04-30T07:06:52.317Z,1020.7
2019-04-30T07:07:53.255Z,1020.6
2019-04-30T07:08:55.800Z,1020.8
2019-04-30T07:09:56.870Z,1020.7
2019-04-30T07:10:55.503Z,1020.7
2019-04-30T07:11:52.542Z,1020.7
2019-04-30T07:12:52.531Z,1020.6
2019-04-30T07:13:52.631Z,1020.6
2019-04-30T07:14:52.725Z,1020.7
2019-04-30T07:15:52.653Z,1020.6
2019-04-30T07:16:52.660Z,1020.7
2019-04-30T07:17:52.697Z,1020.6
2019-04-30T07:18:52.775Z,1020.6
2019-04-30T07:19:56.474Z,1020.6
2019-04-30T07:20:52.799Z,1020.6
2019-04-30T07:21:52.810Z,1020.7
2019-04-30T07:23:00.113Z,1020.7
2019-04-30T07:23:52.861Z,1020.7
2019-04-30T07:24:52.922Z,1020.6
2019-04-30T07:25:52.911Z,1020.6
2019-04-30T07:26:54.601Z,1020.7
2019-04-30T07:27:52.965Z,1020.7
2019-04-30T07:28:55.192Z,1020.6
2019-04-30T07:29:52.999Z,1020.6
2019-04-30T07:31:07.523Z,1020.6
2019-04-30T07:31:53.029Z,1020.6
2019-04-30T07:32:53.036Z,1020.6
2019-04-30T07:33:54.028Z,1020.5
2019-04-30T07:34:53.059Z,1020.6
2019-04-30T07:35:53.127Z,1020.7
2019-04-30T07:37:10.660Z,1020.7
2019-04-30T07:37:54.456Z,1020.6
2019-04-30T07:38:56.319Z,1020.7
2019-04-30T07:39:53.115Z,1020.7
2019-04-30T07:40:53.145Z,1020.7
2019-04-30T07:41:53.162Z,1020.7
2019-04-30T07:42:53.232Z,1020.8
2019-04-30T07:43:53.185Z,1020.7
2019-04-30T07:44:53.180Z,1020.7
2019-04-30T07:45:53.245Z,1020.7
2019-04-30T07:46:53.218Z,1020.5
2019-04-30T07:47:53.185Z,1020.7
2019-04-30T07:48:53.183Z,1020.6
2019-04-30T07:49:55.854Z,1020.5
2019-04-30T07:50:53.247Z,1020.6
2019-04-30T07:51:53.865Z,1020.6
2019-04-30T07:53:02.380Z,1020.7
2019-04-30T07:53:53.221Z,1020.6
2019-04-30T07:54:53.230Z,1020.6
2019-04-30T07:55:53.248Z,1020.7
2019-04-30T07:56:53.257Z,1020.6
2019-04-30T07:57:53.245Z,1020.6
2019-04-30T07:58:53.245Z,1020.7
2019-04-30T07:59:53.277Z,1020.5
2019-04-30T08:00:56.100Z,1020.6
2019-04-30T08:02:03.925Z,1020.7
2019-04-30T08:02:53.449Z,1020.7
2019-04-30T08:03:53.710Z,1020.6
2019-04-30T08:04:53.526Z,1020.7
2019-04-30T08:05:55.884Z,1020.5
2019-04-30T08:06:53.619Z,1020.6
2019-04-30T08:07:53.706Z,1020.6
2019-04-30T08:08:57.401Z,1020.6
2019-04-30T08:09:53.710Z,1020.6
2019-04-30T08:10:53.768Z,1020.6
2019-04-30T08:11:53.819Z,1020.6
2019-04-30T08:12:54.110Z,1020.6
2019-04-30T08:13:53.893Z,1020.6
2019-04-30T08:14:53.954Z,1020.6
2019-04-30T08:15:54.007Z,1020.6
2019-04-30T08:16:54.078Z,1020.6
2019-04-30T08:18:02.545Z,1020.6
2019-04-30T08:18:54.133Z,1020.6
2019-04-30T08:19:54.198Z,1020.6
2019-04-30T08:20:54.253Z,1020.6
2019-04-30T08:21:54.290Z,1020.6
2019-04-30T08:22:54.380Z,1020.6
2019-04-30T08:23:54.403Z,1020.6
2019-04-30T08:24:54.412Z,1020.5
2019-04-30T08:25:54.547Z,1020.7
2019-04-30T08:26:54.498Z,1020.6
2019-04-30T08:27:54.487Z,1020.5
2019-04-30T08:28:54.535Z,1020.6
2019-04-30T08:29:54.669Z,1020.6
2019-04-30T08:30:54.629Z,1020.6
2019-04-30T08:31:54.695Z,1020.5
2019-04-30T08:32:54.814Z,1020.5
2019-04-30T08:33:54.716Z,1020.6
2019-04-30T08:34:54.734Z,1020.5
2019-04-30T08:35:54.787Z,1020.5
2019-04-30T08:36:54.932Z,1020.5
2019-04-30T08:37:54.882Z,1020.5
2019-04-30T08:38:55.068Z,1020.5
2019-04-30T08:39:55.003Z,1020.5
2019-04-30T08:40:58.023Z,1020.4
2019-04-30T08:41:55.055Z,1020.5
2019-04-30T08:42:55.114Z,1020.6
2019-04-30T08:43:55.140Z,1020.5
2019-04-30T08:44:55.212Z,1020.4
2019-04-30T08:45:55.204Z,1020.5
2019-04-30T08:46:55.258Z,1020.5
2019-04-30T08:47:55.312Z,1020.4
2019-04-30T08:48:55.354Z,1020.3
2019-04-30T08:49:55.411Z,1020.4
2019-04-30T08:50:55.396Z,1020.4
2019-04-30T08:51:55.466Z,1020.4
2019-04-30T08:52:55.435Z,1020.4
2019-04-30T08:53:55.466Z,1020.3
2019-04-30T08:54:55.507Z,1020.5
2019-04-30T08:55:55.550Z,1020.4
2019-04-30T08:56:55.641Z,1020.3
2019-04-30T08:58:07.435Z,1020.3
2019-04-30T08:58:55.621Z,1020.3
2019-04-30T08:59:55.661Z,1020.3
2019-04-30T09:00:55.731Z,1020.4
2019-04-30T09:01:55.717Z,1020.3
2019-04-30T09:02:55.734Z,1020.3
2019-04-30T09:03:55.783Z,1020.4
2019-04-30T09:04:55.825Z,1020.4
2019-04-30T09:05:55.847Z,1020.3
2019-04-30T09:06:55.870Z,1020.2
2019-04-30T09:07:55.906Z,1020.1
2019-04-30T09:08:55.967Z,1020.2
2019-04-30T09:09:55.975Z,1020.2
2019-04-30T09:10:55.981Z,1020.3
2019-04-30T09:11:56.045Z,1020.2
2019-04-30T09:12:56.036Z,1020.3
2019-04-30T09:13:56.075Z,1020.2
2019-04-30T09:14:56.093Z,1020.2
2019-04-30T09:15:56.144Z,1020.3
2019-04-30T09:16:56.160Z,1020.2
2019-04-30T09:18:01.536Z,1020.2
2019-04-30T09:18:56.213Z,1020.1
2019-04-30T09:19:56.241Z,1020.2
2019-04-30T09:21:04.066Z,1020.2
2019-04-30T09:21:56.281Z,1020.2
2019-04-30T09:22:56.302Z,1020.2
2019-04-30T09:23:56.334Z,1020.2
2019-04-30T09:24:56.328Z,1020.2
2019-04-30T09:25:58.391Z,1020.2
2019-04-30T09:26:56.357Z,1020.3
2019-04-30T09:27:56.405Z,1020.3
2019-04-30T09:28:56.417Z,1020.3
2019-04-30T09:29:56.445Z,1020.3
2019-04-30T09:30:58.442Z,1020.3
2019-04-30T09:31:56.467Z,1020.3
2019-04-30T09:32:56.479Z,1020.4
2019-04-30T09:33:57.951Z,1020.3
2019-04-30T09:34:58.523Z,1020.3
2019-04-30T09:35:56.594Z,1020.3
2019-04-30T09:36:56.506Z,1020.3
2019-04-30T09:37:59.545Z,1020.3
2019-04-30T09:38:58.713Z,1020.3
2019-04-30T09:39:56.514Z,1020.3
2019-04-30T09:40:56.535Z,1020.3
2019-04-30T09:41:56.567Z,1020.3
2019-04-30T09:42:56.560Z,1020.3
2019-04-30T09:43:56.543Z,1020.2
2019-04-30T09:44:57.729Z,1020.3
2019-04-30T09:45:56.570Z,1020.3
2019-04-30T09:46:56.563Z,1020.1
2019-04-30T09:47:56.597Z,1020.2
2019-04-30T09:48:56.657Z,1020.3
2019-04-30T09:49:56.886Z,1020.2
2019-04-30T09:50:57.119Z,1020.2
2019-04-30T09:51:57.315Z,1020.2
2019-04-30T09:52:56.915Z,1020.3
2019-04-30T09:54:00.355Z,1020.2
2019-04-30T09:54:56.938Z,1020.2
2019-04-30T09:55:56.957Z,1020.1
2019-04-30T09:56:58.857Z,1020.2
2019-04-30T09:57:58.670Z,1020.2
2019-04-30T09:58:59.030Z,1020.2
2019-04-30T09:59:57.098Z,1020.2
2019-04-30T10:00:59.184Z,1020.1
2019-04-30T10:01:57.155Z,1020.1
2019-04-30T10:02:59.280Z,1020.2
2019-04-30T10:03:59.400Z,1020
2019-04-30T10:04:57.665Z,1020.1
2019-04-30T10:05:59.034Z,1020.2
2019-04-30T10:06:59.412Z,1020.1
2019-04-30T10:07:59.298Z,1020.2
2019-04-30T10:08:59.406Z,1020.1
2019-04-30T10:09:59.036Z,1020.1
2019-04-30T10:10:58.769Z,1020.2
2019-04-30T10:11:59.426Z,1020
2019-04-30T10:12:59.222Z,1020.1
2019-04-30T10:13:57.581Z,1020.1
2019-04-30T10:14:59.238Z,1020.2
2019-04-30T10:15:58.531Z,1020.2
2019-04-30T10:16:59.511Z,1020.2
2019-04-30T10:17:57.769Z,1020.2
2019-04-30T10:18:59.185Z,1020
2019-04-30T10:19:57.851Z,1020.2
2019-04-30T10:20:58.843Z,1020.1
2019-04-30T10:21:58.952Z,1020.1
2019-04-30T10:22:59.606Z,1020.2
2019-04-30T10:24:10.418Z,1020.1
2019-04-30T10:24:59.631Z,1020.1
2019-04-30T10:25:58.077Z,1020.1
2019-04-30T10:26:58.067Z,1020
2019-04-30T10:27:59.734Z,1020.1
2019-04-30T10:28:58.119Z,1020.1
2019-04-30T10:29:59.342Z,1020
2019-04-30T10:30:58.216Z,1020
2019-04-30T10:31:58.746Z,1020.1
2019-04-30T10:32:59.551Z,1020
2019-04-30T10:33:58.640Z,1020
2019-04-30T10:34:58.344Z,1020.1
2019-04-30T10:35:59.452Z,1020.1
2019-04-30T10:36:59.256Z,1020
2019-04-30T10:37:59.536Z,1020
2019-04-30T10:38:59.483Z,1020
2019-04-30T10:39:59.725Z,1019.9
2019-04-30T10:40:58.755Z,1019.9
2019-04-30T10:41:58.575Z,1019.8
2019-04-30T10:42:58.763Z,1019.9
2019-04-30T10:43:59.077Z,1019.8
2019-04-30T10:45:00.223Z,1020
2019-04-30T10:45:58.684Z,1020
2019-04-30T10:46:59.308Z,1019.9
2019-04-30T10:47:59.262Z,1019.9
2019-04-30T10:48:58.762Z,1019.9
2019-04-30T10:49:58.774Z,1020
2019-04-30T10:50:59.309Z,1019.9
2019-04-30T10:51:59.358Z,1019.9
2019-04-30T10:52:59.131Z,1019.9
2019-04-30T10:53:59.910Z,1019.9
2019-04-30T10:54:59.511Z,1019.9
2019-04-30T10:55:59.444Z,1019.8
2019-04-30T10:56:59.284Z,1019.9
2019-04-30T10:57:59.313Z,1019.8
2019-04-30T10:58:58.952Z,1019.8
2019-04-30T10:59:58.950Z,1019.8
2019-04-30T11:00:59.481Z,1019.9
2019-04-30T11:01:59.224Z,1019.8
2019-04-30T11:02:59.309Z,1019.8
2019-04-30T11:03:59.137Z,1019.9
2019-04-30T11:04:59.052Z,1019.9
2019-04-30T11:05:59.099Z,1019.8
2019-04-30T11:07:00.482Z,1019.8
2019-04-30T11:07:59.517Z,1019.9
2019-04-30T11:08:59.183Z,1019.8
2019-04-30T11:09:59.183Z,1019.8
2019-04-30T11:10:59.190Z,1019.8
2019-04-30T11:11:59.428Z,1019.8
2019-04-30T11:12:59.320Z,1019.6
2019-04-30T11:13:59.241Z,1019.6
2019-04-30T11:14:59.263Z,1019.6
2019-04-30T11:16:11.665Z,1019.6
2019-04-30T11:16:59.832Z,1019.5
2019-04-30T11:17:59.752Z,1019.6
2019-04-30T11:18:59.525Z,1019.5
2019-04-30T11:19:59.508Z,1019.5
2019-04-30T11:20:59.734Z,1019.6
2019-04-30T11:21:59.465Z,1019.6
2019-04-30T11:22:59.408Z,1019.4
2019-04-30T11:23:59.613Z,1019.4
2019-04-30T11:25:06.665Z,1019.5
2019-04-30T11:26:00.225Z,1019.4
2019-04-30T11:27:00.327Z,1019.4
2019-04-30T11:27:59.789Z,1019.4
2019-04-30T11:28:59.548Z,1019.4
2019-04-30T11:30:03.029Z,1019.3
2019-04-30T11:30:59.599Z,1019.5
2019-04-30T11:31:59.600Z,1019.4
2019-04-30T11:32:59.666Z,1019.4
2019-04-30T11:33:59.541Z,1019.3
2019-04-30T11:34:59.593Z,1019.3
2019-04-30T11:36:02.864Z,1019.3
2019-04-30T11:36:59.708Z,1019.3
2019-04-30T11:37:59.760Z,1019.3
2019-04-30T11:38:59.814Z,1019.4
2019-04-30T11:39:59.861Z,1019.3
2019-04-30T11:40:59.923Z,1019.4
2019-04-30T11:41:59.972Z,1019.3
2019-04-30T11:43:00.006Z,1019.3
2019-04-30T11:44:00.049Z,1019.2
2019-04-30T11:45:00.075Z,1019.1
2019-04-30T11:46:00.289Z,1019.2
2019-04-30T11:47:00.108Z,1019.2
2019-04-30T11:48:00.586Z,1019.2
2019-04-30T11:49:00.232Z,1019.1
2019-04-30T11:50:00.213Z,1019.3
2019-04-30T11:51:00.218Z,1019.4
2019-04-30T11:52:00.318Z,1019.3
2019-04-30T11:53:14.106Z,1019.4
2019-04-30T11:54:00.365Z,1019.3
2019-04-30T11:55:00.351Z,1019.3
2019-04-30T11:56:00.340Z,1019.4
2019-04-30T11:57:00.393Z,1019.3
2019-04-30T11:58:00.435Z,1019.3
2019-04-30T11:59:00.515Z,1019.3
2019-04-30T12:00:00.511Z,1019.4
2019-04-30T12:01:00.557Z,1019.3
2019-04-30T12:02:00.616Z,1019.3
2019-04-30T12:03:00.642Z,1019.5
2019-04-30T12:04:00.719Z,1019.4
2019-04-30T12:05:00.753Z,1019.4
2019-04-30T12:06:00.792Z,1019.4
2019-04-30T12:07:00.838Z,1019.4
2019-04-30T12:08:00.900Z,1019.5
2019-04-30T12:09:00.930Z,1019.5
2019-04-30T12:10:00.972Z,1019.4
2019-04-30T12:11:01.018Z,1019.4
2019-04-30T12:12:01.082Z,1019.5
2019-04-30T12:13:03.606Z,1019.4
2019-04-30T12:14:01.160Z,1019.5
2019-04-30T12:15:02.791Z,1019.5
2019-04-30T12:16:01.197Z,1019.6
2019-04-30T12:17:01.250Z,1019.6
2019-04-30T12:18:01.286Z,1019.6
2019-04-30T12:19:01.307Z,1019.5
2019-04-30T12:20:01.338Z,1019.6
2019-04-30T12:21:01.380Z,1019.5
2019-04-30T12:22:01.426Z,1019.5
2019-04-30T12:23:01.485Z,1019.4
2019-04-30T12:24:01.524Z,1019.5
2019-04-30T12:25:03.138Z,1019.5
2019-04-30T12:26:02.900Z,1019.5
2019-04-30T12:27:01.644Z,1019.4
2019-04-30T12:28:01.655Z,1019.4
2019-04-30T12:29:01.703Z,1019.3
2019-04-30T12:30:01.714Z,1019.3
2019-04-30T12:31:01.752Z,1019.3
2019-04-30T12:32:01.777Z,1019.3
2019-04-30T12:33:01.803Z,1019.5